Time;durP1;ratioP1;P1;durP2;ratioP2;P2;SDS_P1;SDS_P2;PMS_P1;PMS_P2;Temp;Humidity;BMP_temperature;BMP_pressure;BME280_temperature;BME280_humidity;BME280_pressure;Samples;Min_cycle;Max_cycle;Signal;HPM_P1;HPM_P2
2023/10/12 00:02:21;;;;;;;9.68;3.60;;;;;;;22.75;100.00;100701.88;4928379;29;20050;-42
2023/10/12 00:05:02;;;;;;;10.38;3.55;;;;;;;22.76;100.00;100717.56;4929419;29;20055;-46
2023/10/12 00:07:37;;;;;;;6.97;3.25;;;;;;;22.74;100.00;100703.91;4921524;29;20102;-41
2023/10/12 00:12:41;;;;;;;8.55;3.45;;;;;;;22.74;100.00;100684.06;4929444;29;20602;-44
2023/10/12 00:15:23;;;;;;;10.02;3.33;;;;;;;22.76;100.00;100680.72;4929616;29;20103;-44
2023/10/12 00:17:57;;;;;;;9.68;3.65;;;;;;;22.74;100.00;100672.72;4928717;29;20062;-42
2023/10/12 00:23:16;;;;;;;11.13;3.97;;;;;;;22.77;100.00;100668.13;4928688;29;20055;-41
2023/10/12 00:25:47;;;;;;;;;;;;;;;22.79;100.00;100688.25;4929900;29;20075;-44
2023/10/12 00:28:18;;;;;;;7.35;3.88;;;;;;;22.74;100.00;100698.25;4927969;29;19987;-41
2023/10/12 00:30:57;;;;;;;11.63;3.53;;;;;;;22.77;100.00;100693.63;4928392;29;20052;-40
2023/10/12 00:33:25;;;;;;;8.45;3.42;;;;;;;22.75;100.00;100701.88;4931240;29;20075;-43
2023/10/12 00:36:00;;;;;;;7.40;3.42;;;;;;;22.75;100.00;100710.38;4934453;29;20126;-44
2023/10/12 00:38:30;;;;;;;7.65;3.35;;;;;;;22.73;100.00;100698.75;4907351;29;20176;-42
2023/10/12 00:41:04;;;;;;;9.50;3.97;;;;;;;22.76;100.00;100703.41;4930259;29;20144;-41
2023/10/12 00:43:36;;;;;;;8.35;3.35;;;;;;;22.72;100.00;100702.88;4932212;29;20055;-42
2023/10/12 00:49:20;;;;;;;7.35;3.35;;;;;;;22.77;100.00;100711.41;4882667;29;20694;-46
2023/10/12 00:51:51;;;;;;;8.70;3.45;;;;;;;22.74;100.00;100720.91;4931817;29;20162;-43
2023/10/12 00:54:56;;;;;;;7.43;3.10;;;;;;;22.72;100.00;100729.16;4930927;29;20473;-46
2023/10/12 00:57:12;;;;;;;8.55;3.47;;;;;;;22.76;100.00;100728.91;4930314;29;20115;-43
2023/10/12 00:59:40;;;;;;;8.23;3.78;;;;;;;22.76;100.00;100724.03;4933234;29;20071;-47
2023/10/12 01:02:15;;;;;;;7.22;3.30;;;;;;;22.78;100.00;100732.03;4929275;29;20067;-43
2023/10/12 01:04:42;;;;;;;6.90;2.67;;;;;;;22.78;100.00;100729.97;4932301;29;20044;-42
2023/10/12 01:07:11;;;;;;;6.15;2.90;;;;;;;22.76;100.00;100728.91;4928781;29;20377;-45
2023/10/12 01:09:45;;;;;;;8.15;3.05;;;;;;;22.76;100.00;100723.25;4930390;29;20142;-44
2023/10/12 01:12:14;;;;;;;8.05;3.42;;;;;;;22.79;100.00;100725.09;4931145;29;20470;-48
2023/10/12 01:14:47;;;;;;;5.43;2.67;;;;;;;22.73;100.00;100724.25;4933236;29;20135;-43
2023/10/12 01:17:18;;;;;;;8.25;3.33;;;;;;;22.76;100.00;100738.19;4931895;29;20067;-41
2023/10/12 01:19:44;;;;;;;7.47;3.13;;;;;;;22.76;100.00;100738.19;4932419;29;20079;-48
2023/10/12 01:22:14;;;;;;;10.48;3.47;;;;;;;22.79;100.00;100744.91;4930271;29;20044;-44
2023/10/12 01:24:58;;;;;;;7.20;2.90;;;;;;;22.76;100.00;100738.19;4933528;29;20143;-46
2023/10/12 01:27:25;;;;;;;8.20;3.15;;;;;;;22.74;100.00;100723.00;4932152;29;20454;-43
2023/10/12 01:29:52;;;;;;;8.50;3.58;;;;;;;22.75;100.00;100750.03;4931655;29;20451;-47
2023/10/12 01:34:53;;;;;;;7.53;3.33;;;;;;;22.78;100.00;100760.38;4932425;29;20055;-42
2023/10/12 01:37:26;;;;;;;7.80;3.13;;;;;;;22.71;100.00;100766.50;4932219;29;20062;-46
2023/10/12 01:39:59;;;;;;;7.50;3.17;;;;;;;22.73;100.00;100767.53;4931149;29;20052;-42
2023/10/12 01:42:43;;;;;;;9.05;2.78;;;;;;;22.74;100.00;100771.91;4932314;29;20087;-42
2023/10/12 01:45:19;;;;;;;5.68;2.95;;;;;;;22.74;100.00;100777.59;4922506;29;20054;-46
2023/10/12 01:47:51;;;;;;;9.23;3.30;;;;;;;22.69;100.00;100788.88;4930030;29;20074;-47
2023/10/12 01:50:18;;;;;;;8.95;3.08;;;;;;;22.71;100.00;100794.84;4931127;29;20055;-50
2023/10/12 01:52:46;;;;;;;9.07;3.35;;;;;;;22.70;100.00;100805.38;4926068;29;20574;-49
2023/10/12 01:55:28;;;;;;;5.90;3.00;;;;;;;22.72;100.00;100814.16;4929851;29;20052;-42
2023/10/12 01:57:56;;;;;;;8.38;3.28;;;;;;;22.74;100.00;100822.94;4932785;29;20063;-44
2023/10/12 02:00:27;;;;;;;6.43;2.90;;;;;;;22.74;100.00;100820.09;4929698;29;20511;-43
2023/10/12 02:03:12;;;;;;;8.25;2.97;;;;;;;22.82;100.00;100828.94;4931970;29;20166;-45
2023/10/12 02:05:46;;;;;;;8.25;3.20;;;;;;;22.82;100.00;100824.06;4926730;29;20052;-47
2023/10/12 02:08:19;;;;;;;6.88;2.80;;;;;;;22.83;100.00;100825.63;4915889;29;20051;-43
2023/10/12 02:13:47;;;;;;;;;;;;;;;22.80;100.00;100845.66;4914014;29;20130;-42
2023/10/12 02:16:24;;;;;;;9.55;2.88;;;;;;;22.82;100.00;100846.75;4932916;29;19971;-45
2023/10/12 02:18:55;;;;;;;6.22;2.75;;;;;;;22.80;100.00;100854.16;4933423;29;20047;-45
2023/10/12 02:21:22;;;;;;;11.35;3.10;;;;;;;22.80;100.00;100846.44;4932833;29;20144;-44
2023/10/12 02:23:58;;;;;;;6.47;2.70;;;;;;;22.78;100.00;100851.84;4931784;29;20506;-45
2023/10/12 02:34:19;;;;;;;4.68;2.40;;;;;;;22.74;100.00;100853.34;4932713;29;20506;-42
2023/10/12 02:39:41;;;;;;;6.20;3.00;;;;;;;22.75;100.00;100857.72;4929212;29;20095;-42
2023/10/12 02:44:42;;;;;;;8.02;3.13;;;;;;;22.73;100.00;100858.22;4931367;29;20087;-42
2023/10/12 02:47:12;;;;;;;11.93;3.42;;;;;;;22.72;100.00;100859.50;4931946;29;20047;-43
2023/10/12 02:49:41;;;;;;;9.80;3.10;;;;;;;22.74;100.00;100856.19;4932726;29;20414;-45
2023/10/12 02:52:08;;;;;;;7.00;2.53;;;;;;;22.72;100.00;100851.00;4931862;29;20147;-45
2023/10/12 02:54:57;;;;;;;7.65;2.90;;;;;;;22.74;100.00;100850.53;4931407;29;20051;-44
2023/10/12 02:57:31;;;;;;;7.18;2.97;;;;;;;22.70;100.00;100847.09;4932239;29;20454;-44
2023/10/12 03:00:14;;;;;;;8.63;3.33;;;;;;;22.71;100.00;100843.00;4932565;29;20443;-46
2023/10/12 03:02:43;;;;;;;7.95;3.00;;;;;;;22.69;100.00;100831.38;4930733;29;20055;-42
2023/10/12 03:05:10;;;;;;;6.57;2.90;;;;;;;22.68;100.00;100835.50;4927061;29;20047;-44
2023/10/12 03:07:39;;;;;;;7.60;2.90;;;;;;;22.68;100.00;100835.50;4933466;29;20139;-43
2023/10/12 03:10:07;;;;;;;7.53;2.53;;;;;;;22.71;100.00;100826.00;4932613;29;20135;-43
2023/10/12 03:12:34;;;;;;;6.72;2.65;;;;;;;22.70;100.00;100833.72;4932059;29;20486;-43
2023/10/12 03:15:12;;;;;;;5.75;2.78;;;;;;;22.67;100.00;100833.91;4932128;29;20464;-43
2023/10/12 03:17:53;;;;;;;6.15;2.50;;;;;;;22.68;100.00;100833.44;4923900;29;20051;-46
2023/10/12 03:20:23;;;;;;;8.05;3.55;;;;;;;22.68;100.00;100822.09;4916460;29;20569;-44
2023/10/12 03:22:53;;;;;;;6.20;3.00;;;;;;;22.66;100.00;100826.72;4931666;29;20213;-46
2023/10/12 03:25:20;;;;;;;6.90;3.10;;;;;;;22.68;100.00;100824.16;4931707;29;20103;-46
2023/10/12 03:27:53;;;;;;;7.22;3.00;;;;;;;22.70;100.00;100821.59;4930353;29;20558;-45
2023/10/12 03:30:34;;;;;;;4.57;2.47;;;;;;;22.68;100.00;100827.75;4931252;29;20131;-44
2023/10/12 03:33:09;;;;;;;5.13;2.55;;;;;;;22.67;100.00;100828.25;4930098;29;20058;-47
2023/10/12 03:35:44;;;;;;;;;;;;;;;22.70;100.00;100818.75;4918269;29;20059;-40
2023/10/12 03:38:18;;;;;;;6.00;2.60;;;;;;;22.68;100.00;100818.50;4929165;29;20006;-46
2023/10/12 03:43:27;;;;;;;7.82;2.90;;;;;;;22.68;100.00;100824.16;4932750;29;20076;-46
2023/10/12 03:48:47;;;;;;;6.30;3.10;;;;;;;22.63;100.00;100805.81;4931621;29;20142;-42
2023/10/12 03:53:56;;;;;;;5.20;2.60;;;;;;;22.64;100.00;100803.78;4931208;29;20102;-40
2023/10/12 03:56:28;;;;;;;5.97;2.40;;;;;;;22.62;100.00;100812.78;4931464;29;20299;-45
2023/10/12 03:59:19;;;;;;;6.93;2.50;;;;;;;22.66;100.00;100821.81;4931500;29;20522;-43
2023/10/12 04:01:46;;;;;;;6.65;2.80;;;;;;;22.60;100.00;100817.34;4930626;29;20143;-45
2023/10/12 04:09:43;;;;;;;4.90;2.75;;;;;;;22.63;100.00;100833.38;4931222;29;20055;-43
2023/10/12 04:12:35;;;;;;;6.10;2.97;;;;;;;22.60;100.00;100845.69;4931316;29;20065;-45
2023/10/12 04:15:07;;;;;;;6.97;2.55;;;;;;;22.60;100.00;100845.69;4929213;29;20058;-42
2023/10/12 04:23:13;;;;;;;7.20;3.00;;;;;;;22.63;100.00;100828.50;4923260;29;20764;-42
2023/10/12 04:43:39;;;;;;;8.25;3.30;;;;;;;22.58;100.00;100814.25;4931372;29;20079;-45
2023/10/12 04:48:41;;;;;;;4.50;2.60;;;;;;;22.59;100.00;100829.97;4927146;29;20130;-45
2023/10/12 04:51:10;;;;;;;5.60;3.05;;;;;;;22.58;100.00;100834.09;4929803;29;20123;-47
2023/10/12 04:53:53;;;;;;;8.02;2.90;;;;;;;22.59;100.00;100835.66;4930825;29;20143;-43
2023/10/12 04:56:23;;;;;;;7.47;2.65;;;;;;;22.67;100.00;100834.72;4928512;29;20091;-45
2023/10/12 04:58:56;;;;;;;10.48;2.92;;;;;;;22.72;100.00;100841.72;4929327;29;20048;-46
2023/10/12 05:01:29;;;;;;;6.85;2.60;;;;;;;22.68;100.00;100850.44;4933085;29;20500;-42
2023/10/12 05:04:09;;;;;;;4.75;2.30;;;;;;;22.66;100.00;100855.03;4913415;29;20060;-43
2023/10/12 05:06:46;;;;;;;6.68;2.53;;;;;;;22.67;100.00;100857.38;4927082;29;20062;-45
2023/10/12 05:09:18;;;;;;;7.90;2.97;;;;;;;22.65;100.00;100862.00;4919932;29;20418;-42
2023/10/12 05:11:46;;;;;;;6.25;2.72;;;;;;;22.64;100.00;100858.38;4921056;29;20060;-44
2023/10/12 05:14:15;;;;;;;10.73;2.58;;;;;;;22.69;100.00;100868.22;4929052;29;20062;-44
2023/10/12 05:16:45;;;;;;;6.60;2.72;;;;;;;22.65;100.00;100868.44;4930670;29;20047;-42
2023/10/12 05:19:12;;;;;;;7.50;2.75;;;;;;;22.67;100.00;100871.56;4932441;29;20079;-42
2023/10/12 05:21:39;;;;;;;5.13;2.20;;;;;;;22.67;100.00;100868.72;4933752;29;20122;-43
2023/10/12 05:24:08;;;;;;;6.45;2.88;;;;;;;22.70;100.00;100869.78;4933782;29;20135;-42
2023/10/12 05:26:36;;;;;;;7.15;2.83;;;;;;;22.70;100.00;100879.06;4933189;29;20047;-43
2023/10/12 05:31:57;;;;;;;8.32;3.15;;;;;;;22.69;100.00;100876.72;4933796;29;20067;-45
2023/10/12 05:34:44;;;;;;;8.07;2.53;;;;;;;22.67;100.00;100891.38;4933720;29;20503;-42
2023/10/12 05:39:51;;;;;;;8.05;2.78;;;;;;;22.64;100.00;100885.94;4933879;29;20182;-44
2023/10/12 05:42:25;;;;;;;6.55;2.95;;;;;;;22.63;100.00;100890.81;4932433;29;20055;-43
2023/10/12 05:44:53;;;;;;;6.28;2.85;;;;;;;22.58;100.00;100885.84;4928770;29;20537;-45
2023/10/12 05:47:29;;;;;;;6.75;3.00;;;;;;;22.61;100.00;100882.03;4933361;29;20059;-42
2023/10/12 05:50:00;;;;;;;6.55;2.55;;;;;;;22.59;100.00;100895.16;4931591;29;20056;-43
2023/10/12 05:52:26;;;;;;;7.20;2.63;;;;;;;22.57;100.00;100889.19;4936890;29;20525;-43
2023/10/12 05:54:58;;;;;;;10.10;2.78;;;;;;;22.55;100.00;100886.09;4932580;29;20138;-44
2023/10/12 05:57:29;;;;;;;5.95;2.50;;;;;;;22.58;100.00;100887.94;4932672;29;20167;-44
2023/10/12 05:59:59;;;;;;;8.07;2.70;;;;;;;22.64;100.00;100897.28;4933525;29;20131;-44
2023/10/12 06:02:26;;;;;;;7.10;2.70;;;;;;;22.58;100.00;100888.69;4931416;29;20404;-46
2023/10/12 06:04:53;;;;;;;8.52;2.80;;;;;;;22.60;100.00;100885.38;4926345;29;20052;-43
2023/10/12 06:07:20;;;;;;;7.32;2.38;;;;;;;22.63;100.00;100878.69;4927162;29;20326;-45
2023/10/12 06:09:52;;;;;;;9.10;3.40;;;;;;;22.63;100.00;100888.00;4931465;29;20101;-42
2023/10/12 06:12:21;;;;;;;5.93;2.38;;;;;;;22.63;100.00;100873.03;4915792;29;20054;-43
2023/10/12 06:14:53;;;;;;;6.95;2.75;;;;;;;22.62;100.00;100882.81;4914464;29;20732;-43
2023/10/12 06:17:30;;;;;;;4.47;2.60;;;;;;;22.63;100.00;100879.50;4917282;29;20079;-43
2023/10/12 06:20:10;;;;;;;6.80;2.60;;;;;;;22.65;100.00;100879.00;4934249;29;20055;-45
2023/10/12 06:22:38;;;;;;;5.60;2.58;;;;;;;22.60;100.00;100885.38;4931588;29;20158;-43
2023/10/12 06:25:10;;;;;;;6.25;2.80;;;;;;;22.63;100.00;100895.72;4922949;29;20060;-43
2023/10/12 06:27:37;;;;;;;5.93;2.70;;;;;;;22.65;100.00;100896.78;4933016;29;20062;-43
2023/10/12 06:30:17;;;;;;;8.27;2.33;;;;;;;22.68;100.00;100903.50;4932331;29;20134;-44
2023/10/12 06:32:47;;;;;;;3.28;2.08;;;;;;;22.64;100.00;100902.94;4931267;29;20056;-43
2023/10/12 06:37:59;;;;;;;7.38;2.67;;;;;;;22.64;100.00;100915.03;4931732;29;20630;-42
2023/10/12 06:45:48;;;;;;;9.63;2.50;;;;;;;22.79;100.00;100920.66;4935854;29;20734;-41
2023/10/12 06:48:39;;;;;;;9.45;2.92;;;;;;;22.74;100.00;100932.72;4929952;29;20126;-43
2023/10/12 06:51:10;;;;;;;9.85;2.50;;;;;;;22.69;100.00;100927.72;4931182;29;20051;-42
2023/10/12 06:53:40;;;;;;;10.00;2.85;;;;;;;22.69;100.00;100928.53;4932719;29;20055;-42
2023/10/12 06:59:09;;;;;;;9.13;2.78;;;;;;;22.68;100.00;100932.59;4921244;29;20048;-41
2023/10/12 07:04:36;;;;;;;6.90;2.60;;;;;;;22.67;100.00;100931.06;4928874;29;20089;-43
2023/10/12 07:07:11;;;;;;;10.52;3.00;;;;;;;22.69;100.00;100941.91;4928098;29;20055;-43
2023/10/12 07:09:43;;;;;;;;;;;;;;;22.70;100.00;100943.44;4925404;29;20558;-44
2023/10/12 07:12:14;;;;;;;7.00;2.47;;;;;;;22.63;100.00;100946.72;4931348;29;19922;-45
2023/10/12 07:14:52;;;;;;;16.33;3.25;;;;;;;22.58;100.00;100951.03;4931654;29;20059;-45
2023/10/12 07:17:27;;;;;;;9.25;2.85;;;;;;;22.68;100.00;100951.69;4931215;29;20058;-43
2023/10/12 07:19:54;;;;;;;;;;;;;;;22.70;100.00;100958.41;4928289;29;20186;-47
2023/10/12 07:22:21;;;;;;;12.60;2.75;;;;;;;22.70;100.00;100961.25;4931546;29;20314;-42
2023/10/12 07:24:56;;;;;;;6.45;2.67;;;;;;;22.68;100.00;100965.84;4935331;29;20048;-44
2023/10/12 07:27:24;;;;;;;7.50;2.40;;;;;;;22.64;100.00;100959.63;4930272;29;20055;-41
2023/10/12 07:30:08;;;;;;;10.90;2.70;;;;;;;22.55;100.00;100969.03;4929801;29;20506;-42
2023/10/12 07:32:44;;;;;;;8.82;2.80;;;;;;;22.57;100.00;100966.47;4931768;29;20052;-46
2023/10/12 07:35:18;;;;;;;7.57;2.47;;;;;;;22.58;100.00;100970.84;4930490;29;20542;-43
2023/10/12 07:37:46;;;;;;;9.73;2.97;;;;;;;22.59;100.00;100968.81;4928349;29;20058;-45
2023/10/12 07:40:19;;;;;;;8.25;2.50;;;;;;;22.59;100.00;100974.47;4927322;29;20430;-42
2023/10/12 07:42:49;;;;;;;8.85;2.80;;;;;;;22.60;100.00;100976.03;4929790;29;20488;-40
2023/10/12 07:45:17;;;;;;;15.35;3.03;;;;;;;22.64;100.00;100976.63;4914107;29;20316;-42
2023/10/12 07:47:58;;;;;;;9.43;3.08;;;;;;;22.62;100.00;100984.81;4924672;29;20082;-43
2023/10/12 07:50:26;;;;;;;9.73;2.60;;;;;;;22.66;100.00;100985.41;4923571;29;20050;-43
2023/10/12 07:55:41;;;;;;;8.57;2.55;;;;;;;22.66;100.00;100991.06;4925606;29;20158;-43
2023/10/12 07:58:12;;;;;;;10.77;2.83;;;;;;;22.62;100.00;100984.81;4918239;29;20153;-44
2023/10/12 08:00:51;;;;;;;13.70;2.92;;;;;;;22.57;100.00;100974.19;4924606;29;20142;-44
2023/10/12 08:03:19;;;;;;;6.55;3.10;;;;;;;22.61;100.00;100988.94;4918476;29;20056;-43
2023/10/12 08:05:56;;;;;;;10.52;2.60;;;;;;;22.55;100.00;100985.25;4930738;29;21076;-43
2023/10/12 08:08:33;;;;;;;12.35;2.60;;;;;;;22.57;100.00;100986.31;4927845;29;20055;-43
2023/10/12 08:11:09;;;;;;;6.50;2.83;;;;;;;22.56;100.00;100984.75;4918521;29;20690;-44
2023/10/12 08:13:48;;;;;;;7.57;2.65;;;;;;;22.54;100.00;100990.13;4929423;29;20459;-40
2023/10/12 08:16:16;;;;;;;6.90;2.50;;;;;;;22.55;100.00;100997.38;4924165;29;20047;-48
2023/10/12 08:32:15;;;;;;;7.53;2.63;;;;;;;22.54;100.00;100997.88;4928310;29;20048;-42
2023/10/12 08:34:42;;;;;;;10.20;2.63;;;;;;;22.52;100.00;101001.19;4928625;29;20047;-45
2023/10/12 08:39:49;;;;;;;7.10;2.20;;;;;;;22.56;100.00;100995.31;4931438;29;20090;-45
2023/10/12 08:44:59;;;;;;;5.25;2.40;;;;;;;22.59;100.00;101002.81;4922434;29;20577;-46
2023/10/12 08:52:30;;;;;;;8.45;2.65;;;;;;;22.57;100.00;101016.69;4928228;29;20075;-42
2023/10/12 08:54:58;;;;;;;4.63;2.03;;;;;;;22.59;100.00;101005.66;4923015;29;20044;-42
2023/10/12 08:57:35;;;;;;;5.43;2.47;;;;;;;22.62;100.00;101016.00;4926523;29;20064;-42
2023/10/12 09:00:35;;;;;;;;;;;;;;;;;;;;;
2023/10/12 09:03:05;;;;;;;7.40;2.95;;;;;;;22.70;100.00;101020.75;4931764;29;20052;-42
2023/10/12 09:05:34;;;;;;;10.65;2.97;;;;;;;22.71;100.00;101015.88;4920337;29;20067;-45
2023/10/12 09:13:18;;;;;;;10.10;2.50;;;;;;;22.59;100.00;101029.09;4933307;29;20130;-42
2023/10/12 09:15:45;;;;;;;6.85;2.50;;;;;;;22.56;100.00;101018.75;4922819;29;20104;-46
2023/10/12 09:18:18;;;;;;;7.38;2.63;;;;;;;22.55;100.00;101014.38;4929620;29;20052;-42
2023/10/12 09:21:01;;;;;;;8.07;2.50;;;;;;;22.59;100.00;101014.94;4927449;29;20413;-44
2023/10/12 09:23:47;;;;;;;14.77;2.80;;;;;;;22.74;100.00;101024.16;4928544;29;20054;-43
2023/10/12 09:31:16;;;;;;;7.55;2.42;;;;;;;22.66;100.00;101020.19;4928932;29;20134;-42
2023/10/12 09:36:28;;;;;;;7.18;2.50;;;;;;;22.70;100.00;101028.47;4931357;29;20060;-42
2023/10/12 09:38:56;;;;;;;6.30;2.75;;;;;;;22.69;100.00;101024.09;4928215;29;20138;-45
2023/10/12 09:41:28;;;;;;;11.27;2.83;;;;;;;22.68;100.00;101031.03;4932455;29;20111;-44
2023/10/12 09:44:04;;;;;;;10.10;2.88;;;;;;;22.63;100.00;101032.50;4931642;29;20056;-43
2023/10/12 09:46:32;;;;;;;11.93;3.20;;;;;;;22.69;100.00;101027.72;4931752;29;20103;-44
2023/10/12 09:49:46;;;;;;;10.68;2.88;;;;;;;22.70;100.00;101031.31;4930219;29;20147;-46
2023/10/12 09:51:54;;;;;;;13.32;2.90;;;;;;;22.76;100.00;101037.84;4920168;29;20050;-42
2023/10/12 09:54:32;;;;;;;9.50;2.85;;;;;;;22.74;100.00;101031.91;4930130;29;20110;-47
2023/10/12 09:57:04;;;;;;;12.50;3.00;;;;;;;22.74;100.00;101037.56;4930607;29;20079;-43
2023/10/12 09:59:31;;;;;;;9.60;3.08;;;;;;;22.72;100.00;101034.44;4930152;29;20135;-42
2023/10/12 10:02:27;;;;;;;12.25;3.80;;;;;;;22.72;100.00;101035.22;4912956;29;20187;-42
2023/10/12 10:05:11;;;;;;;9.00;2.72;;;;;;;22.71;100.00;101039.31;4928639;29;20052;-43
2023/10/12 10:07:58;;;;;;;16.25;3.70;;;;;;;22.85;100.00;101040.56;4927979;29;20513;-45
2023/10/12 10:10:32;;;;;;;6.32;2.65;;;;;;;22.80;100.00;101044.06;4924664;29;20500;-46
2023/10/12 10:13:00;;;;;;;7.63;2.72;;;;;;;22.82;100.00;101042.31;4932314;29;20087;-43
2023/10/12 10:15:36;;;;;;;12.57;3.28;;;;;;;22.84;100.00;101036.13;4928571;29;20051;-43
2023/10/12 10:18:04;;;;;;;10.32;3.20;;;;;;;22.76;100.00;101038.63;4926309;29;20102;-42
2023/10/12 10:20:56;;;;;;;18.48;4.78;;;;;;;22.77;100.00;101033.72;4928105;29;20047;-43
2023/10/12 10:23:24;;;;;;;20.30;6.53;;;;;;;22.75;100.00;101042.72;4930201;29;20142;-44
2023/10/12 10:25:56;;;;;;;18.02;6.60;;;;;;;22.80;100.00;101032.72;4930810;29;20052;-42
2023/10/12 10:28:27;;;;;;;21.58;8.65;;;;;;;22.78;100.00;101021.13;4928956;29;20115;-41
2023/10/12 10:30:59;;;;;;;25.55;10.55;;;;;;;22.83;100.00;101006.22;4929174;29;20367;-46
2023/10/12 10:33:28;;;;;;;37.78;15.35;;;;;;;22.77;100.00;101000.50;4929686;29;20071;-42
2023/10/12 10:35:56;;;;;;;39.88;17.48;;;;;;;22.83;100.00;100989.22;4931754;29;20080;-46
2023/10/12 10:38:34;;;;;;;41.03;13.90;;;;;;;22.86;100.00;100993.91;4925703;29;20055;-45
2023/10/12 10:41:22;;;;;;;38.60;16.40;;;;;;;22.83;100.00;101006.22;4917634;29;20152;-46
2023/10/12 10:43:53;;;;;;;41.17;15.65;;;;;;;22.77;100.00;101006.16;4925599;29;20143;-44
2023/10/12 10:46:26;;;;;;;39.08;15.27;;;;;;;22.77;100.00;101002.53;4929790;29;20066;-44
2023/10/12 10:48:54;;;;;;;35.55;14.23;;;;;;;22.75;100.00;101000.19;4926966;29;20139;-43
2023/10/12 10:51:48;;;;;;;35.47;14.75;;;;;;;22.79;100.00;100994.34;4929662;29;20044;-44
2023/10/12 10:54:18;;;;;;;44.73;13.67;;;;;;;22.79;100.00;100997.16;4927387;29;20052;-44
2023/10/12 10:56:49;;;;;;;32.63;12.50;;;;;;;22.82;100.00;100999.03;4927862;29;20597;-44
2023/10/12 10:59:19;;;;;;;27.65;10.85;;;;;;;22.80;100.00;100985.34;4930130;29;20047;-42
2023/10/12 11:01:50;;;;;;;26.75;10.32;;;;;;;22.81;100.00;100991.81;4930124;29;20126;-43
2023/10/12 11:04:18;;;;;;;31.67;11.73;;;;;;;22.82;100.00;100996.97;4930008;29;20523;-42
2023/10/12 11:06:47;;;;;;;29.10;10.98;;;;;;;22.83;100.00;100995.69;4929101;29;20075;-46
2023/10/12 11:09:17;;;;;;;29.75;11.65;;;;;;;22.87;100.00;101001.13;4928886;29;20115;-44
2023/10/12 11:11:48;;;;;;;26.33;9.98;;;;;;;22.88;100.00;101002.72;4928337;29;20075;-46
2023/10/12 11:14:18;;;;;;;33.70;10.63;;;;;;;22.83;100.00;101001.34;4927628;29;20623;-48
2023/10/12 11:16:48;;;;;;;30.33;9.65;;;;;;;22.82;100.00;100999.81;4930539;29;20130;-48
2023/10/12 11:19:19;;;;;;;27.55;10.30;;;;;;;22.83;100.00;101000.56;4930697;29;20048;-46
2023/10/12 11:21:51;;;;;;;30.05;9.27;;;;;;;22.81;100.00;100992.56;4929363;29;20044;-43
2023/10/12 11:24:22;;;;;;;29.70;10.85;;;;;;;22.84;100.00;100996.44;4909192;29;20047;-43
2023/10/12 11:26:57;;;;;;;31.70;9.48;;;;;;;22.84;100.00;100991.56;4928563;29;20075;-43
2023/10/12 11:29:25;;;;;;;27.30;9.85;;;;;;;22.83;100.00;100989.22;4927580;29;20055;-45
2023/10/12 11:32:16;;;;;;;20.65;8.15;;;;;;;22.83;100.00;100978.69;4927520;29;20106;-43
2023/10/12 11:34:54;;;;;;;24.90;8.93;;;;;;;22.83;100.00;100975.06;4922925;29;20054;-43
2023/10/12 11:37:23;;;;;;;25.50;8.98;;;;;;;22.84;100.00;100971.72;4925445;29;20052;-41
2023/10/12 11:39:50;;;;;;;23.05;7.85;;;;;;;22.84;100.00;100979.44;4928989;29;20103;-43
2023/10/12 11:42:17;;;;;;;23.13;7.65;;;;;;;22.83;100.00;100969.38;4927924;29;20039;-41
2023/10/12 11:44:46;;;;;;;24.63;8.77;;;;;;;22.81;100.00;100964.22;4922803;29;20395;-41
2023/10/12 11:47:23;;;;;;;25.63;8.20;;;;;;;22.87;100.00;100970.75;4929701;29;20135;-43
2023/10/12 11:49:55;;;;;;;19.48;7.53;;;;;;;22.88;100.00;100969.44;4930082;29;20517;-47
2023/10/12 11:52:30;;;;;;;19.38;6.72;;;;;;;22.86;100.00;100976.91;4928401;29;20574;-44
2023/10/12 11:55:18;;;;;;;21.33;7.45;;;;;;;22.84;100.00;100968.09;4927753;29;20048;-42
2023/10/12 11:57:54;;;;;;;22.20;7.40;;;;;;;22.84;100.00;100966.06;4930997;29;20048;-45
2023/10/12 12:00:26;;;;;;;27.50;7.60;;;;;;;22.85;100.00;100961.19;4928536;29;20107;-43
2023/10/12 12:02:59;;;;;;;23.83;7.90;;;;;;;22.84;100.00;100963.22;4928431;29;20493;-43
2023/10/12 12:05:29;;;;;;;19.90;7.55;;;;;;;22.87;100.00;100964.28;4925494;29;20083;-42
2023/10/12 12:07:58;;;;;;;21.42;7.97;;;;;;;22.83;100.00;100955.22;4930747;29;20366;-41
2023/10/12 12:10:27;;;;;;;17.83;7.00;;;;;;;22.86;100.00;100957.84;4928289;29;20059;-42
2023/10/12 12:12:57;;;;;;;21.65;7.43;;;;;;;22.86;100.00;100954.22;4927473;29;20167;-44
2023/10/12 12:15:24;;;;;;;22.55;6.70;;;;;;;22.90;100.00;100943.44;4921497;29;20074;-42
2023/10/12 12:17:52;;;;;;;20.92;7.28;;;;;;;22.87;100.00;100956.56;4926416;29;20438;-42
2023/10/12 12:20:21;;;;;;;21.85;6.75;;;;;;;22.92;100.00;100955.06;4927048;29;20070;-45
2023/10/12 12:22:48;;;;;;;19.45;7.07;;;;;;;22.98;100.00;100945.38;4927710;29;20060;-44
2023/10/12 12:25:23;;;;;;;27.90;7.40;;;;;;;23.01;100.00;100946.44;4913055;29;20048;-42
2023/10/12 12:27:55;;;;;;;19.85;6.47;;;;;;;22.89;100.00;100948.34;4931169;29;20514;-44
2023/10/12 12:30:32;;;;;;;19.10;6.00;;;;;;;23.03;100.00;100943.88;4928837;29;20499;-44
2023/10/12 12:33:08;;;;;;;27.92;6.95;;;;;;;22.93;100.00;100928.28;4925837;29;20138;-42
2023/10/12 12:35:36;;;;;;;14.97;5.77;;;;;;;22.87;100.00;100927.44;4930701;29;21841;-44
2023/10/12 12:38:14;;;;;;;22.73;6.95;;;;;;;22.87;100.00;100935.94;4931869;29;20051;-43
2023/10/12 12:40:44;;;;;;;18.63;6.72;;;;;;;22.90;100.00;100935.72;4931712;29;20138;-41
2023/10/12 12:43:11;;;;;;;17.52;6.00;;;;;;;22.86;100.00;100940.84;4928597;29;20079;-41
2023/10/12 12:45:38;;;;;;;16.02;5.93;;;;;;;22.86;100.00;100940.06;4933904;29;20047;-42
2023/10/12 12:48:04;;;;;;;19.33;6.15;;;;;;;22.88;100.00;100937.50;4934139;29;20090;-44
2023/10/12 12:50:31;;;;;;;19.60;6.65;;;;;;;22.87;100.00;100933.88;4930717;29;20110;-43
2023/10/12 12:52:58;;;;;;;22.42;6.40;;;;;;;22.91;100.00;100928.00;4932849;29;20149;-43
2023/10/12 12:55:27;;;;;;;18.25;6.10;;;;;;;22.91;100.00;100928.78;4934276;29;20059;-44
2023/10/12 12:57:56;;;;;;;23.27;6.25;;;;;;;22.83;100.00;100926.88;4934725;29;20083;-41
2023/10/12 13:00:22;;;;;;;15.98;5.38;;;;;;;22.80;100.00;100922.19;4931488;29;20690;-41
2023/10/12 13:02:49;;;;;;;19.35;6.70;;;;;;;22.73;100.00;100923.41;4929871;29;20071;-44
2023/10/12 13:05:16;;;;;;;17.58;6.47;;;;;;;22.87;100.00;100913.25;4934386;29;20099;-42
2023/10/12 13:07:46;;;;;;;21.88;6.90;;;;;;;22.79;100.00;100915.75;4934161;29;20048;-41
2023/10/12 13:10:13;;;;;;;21.25;6.28;;;;;;;22.76;100.00;100918.78;4931906;29;20166;-41
2023/10/12 13:12:40;;;;;;;20.60;6.50;;;;;;;22.77;100.00;100926.81;4931929;29;20052;-43
2023/10/12 13:15:10;;;;;;;16.13;6.22;;;;;;;22.76;100.00;100927.31;4931174;29;20047;-43
2023/10/12 13:17:37;;;;;;;16.30;5.57;;;;;;;22.70;100.00;100923.63;4931251;29;20498;-42
2023/10/12 13:20:06;;;;;;;19.98;6.00;;;;;;;22.73;100.00;100931.13;4931219;29;20052;-42
2023/10/12 13:22:33;;;;;;;15.48;5.40;;;;;;;22.73;100.00;100928.28;4924990;29;20052;-42
2023/10/12 13:24:59;;;;;;;13.70;6.03;;;;;;;22.73;100.00;100934.75;4926864;29;20056;-44
2023/10/12 13:27:28;;;;;;;18.92;6.68;;;;;;;22.84;100.00;100936.91;4931487;29;20052;-43
2023/10/12 13:30:00;;;;;;;23.25;6.25;;;;;;;22.90;100.00;100941.41;4928674;29;20079;-45
2023/10/12 13:32:27;;;;;;;14.90;5.57;;;;;;;22.83;100.00;100943.88;4929750;29;20408;-41
2023/10/12 13:34:58;;;;;;;19.60;5.68;;;;;;;22.87;100.00;100948.06;4932640;29;20114;-43
2023/10/12 13:37:30;;;;;;;21.02;5.47;;;;;;;22.86;100.00;100943.69;4931829;29;20079;-41
2023/10/12 13:39:58;;;;;;;19.08;6.25;;;;;;;22.84;100.00;100946.22;4929959;29;20044;-43
2023/10/12 13:42:28;;;;;;;17.10;5.75;;;;;;;22.85;100.00;100941.34;4931141;29;20055;-42
2023/10/12 13:44:54;;;;;;;16.77;5.50;;;;;;;22.78;100.00;100942.53;4928661;29;20051;-43
2023/10/12 13:47:22;;;;;;;18.85;6.20;;;;;;;22.80;100.00;100933.53;4929425;29;20138;-42